KFLP

Marion County Regional Airport

Flippin, Arkansas, USA
METAR KFLP 141256Z AUTO 00000KT 10SM -RA BKN070 OVC085 21/21 A3002 RMK AO2 SLP159 P0007 T02110206
Observed Flight Rules
Aug-14 @ 12:56 UTC (45 minutes ago) Visual Flight Rules
Visibility Clouds Conditions
10 miles
  • Broken at 7,000' AGL
  • Overcast at 8,500' AGL
  • Light Rain
Temperatures Readings Precipitation
Current 21°C / 70°F
Dewpoint 21°C / 70°F
Humidity 100%
Altimeter 30.02" Hg
Pressure 1015.9 hPa
Elevation 219
Current Rain 0.07
METAR KFLP 141256Z AUTO 00000KT 10SM -RA BKN070 OVC085 21/21 A3002 RMK AO2 SLP159 P0007 T02110206
Observed Flight Rules
Aug-14 @ 12:56 UTC
(45 minutes ago)
VFR
Clouds
  • Broken at 7,000' AGL
  • Overcast at 8,500' AGL
Conditions
  • Light Rain
Temperature Dewpoint
21°C / 70°F 21°C / 70°F
Humidity Altimeter Pressure
100% 30.02" Hg 1015.9 hPa
Current Rain
0.07